Time,TemperatureF,DewpointF,PressureIn,WindDirection,WindDirectionDegrees,WindSpeedMPH,WindSpeedGustMPH,Humidity,HourlyPrecipIn,Conditions,Clouds,dailyrainin,SolarRadiationWatts/m^2,SoftwareType,DateUTC
2013-07-30 00:44:00,80.0,39.0,-100.00,WNW,298,12.0,21.0,23,0.00,,,-99.99,562.000000,,2013-07-30 00:44:00,
2013-07-30 00:53:00,80.0,39.0,-100.00,WNW,298,12.0,21.0,23,0.00,,,-99.99,562.000000,,2013-07-30 00:53:00,
2013-07-30 01:23:00,76.0,38.0,-100.00,WNW,283,13.0,22.0,25,0.00,,,0.00,291.000000,,2013-07-30 01:23:00,
2013-07-30 01:35:00,76.0,38.0,-100.00,WNW,283,13.0,22.0,25,0.00,,,0.00,291.000000,,2013-07-30 01:35:00,
2013-07-30 01:44:00,76.0,38.0,-100.00,WNW,283,13.0,22.0,25,0.00,,,0.00,291.000000,,2013-07-30 01:44:00,
2013-07-30 01:53:00,76.0,38.0,-100.00,WNW,283,13.0,22.0,25,0.00,,,0.00,291.000000,,2013-07-30 01:53:00,
2013-07-30 02:23:00,75.0,40.0,-100.00,NW,306,11.0,24.0,28,0.00,,,0.00,339.000000,,2013-07-30 02:23:00,
2013-07-30 02:34:00,75.0,40.0,-100.00,NW,306,11.0,24.0,28,0.00,,,0.00,339.000000,,2013-07-30 02:34:00,
2013-07-30 02:44:00,75.0,40.0,-100.00,NW,306,11.0,24.0,28,0.00,,,0.00,339.000000,,2013-07-30 02:44:00,
2013-07-30 03:24:00,72.0,42.0,-100.00,West,278,10.0,15.0,34,0.00,,,0.00,132.000000,,2013-07-30 03:24:00,
2013-07-30 03:34:00,72.0,42.0,-100.00,West,278,10.0,15.0,34,0.00,,,0.00,132.000000,,2013-07-30 03:34:00,
2013-07-30 03:43:00,72.0,42.0,-100.00,West,278,10.0,15.0,34,0.00,,,0.00,132.000000,,2013-07-30 03:43:00,
2013-07-30 03:52:00,72.0,42.0,-100.00,West,278,10.0,15.0,34,0.00,,,0.00,132.000000,,2013-07-30 03:52:00,
2013-07-30 04:22:00,67.0,42.0,-100.00,NNW,338,3.0,15.0,40,0.00,,,0.00,23.000000,,2013-07-30 04:22:00,
2013-07-30 04:33:00,67.0,42.0,-100.00,NNW,338,3.0,15.0,40,0.00,,,0.00,23.000000,,2013-07-30 04:33:00,
2013-07-30 04:43:00,67.0,42.0,-100.00,NNW,338,3.0,15.0,40,0.00,,,0.00,23.000000,,2013-07-30 04:43:00,
2013-07-30 04:52:00,67.0,42.0,-100.00,NNW,338,3.0,15.0,40,0.00,,,0.00,23.000000,,2013-07-30 04:52:00,
2013-07-30 05:22:00,67.0,38.0,-100.00,West,273,6.0,13.0,34,0.00,,,0.00,1.000000,,2013-07-30 05:22:00,
2013-07-30 05:32:00,67.0,38.0,-100.00,West,273,6.0,13.0,34,0.00,,,0.00,1.000000,,2013-07-30 05:32:00,
2013-07-30 05:45:00,67.0,38.0,-100.00,West,273,6.0,13.0,34,0.00,,,0.00,1.000000,,2013-07-30 05:45:00,
2013-07-30 05:52:00,67.0,38.0,-100.00,West,273,6.0,13.0,34,0.00,,,0.00,1.000000,,2013-07-30 05:52:00,
2013-07-30 06:22:00,64.0,35.0,-100.00,WSW,256,7.0,14.0,34,0.00,,,0.00,1.000000,,2013-07-30 06:22:00,
2013-07-30 06:32:00,64.0,35.0,-100.00,WSW,256,7.0,14.0,34,0.00,,,0.00,1.000000,,2013-07-30 06:32:00,
2013-07-30 06:43:00,64.0,35.0,-100.00,WSW,256,7.0,14.0,34,0.00,,,0.00,1.000000,,2013-07-30 06:43:00,
2013-07-30 06:52:00,64.0,35.0,-100.00,WSW,256,7.0,14.0,34,0.00,,,0.00,1.000000,,2013-07-30 06:52:00,
2013-07-30 07:22:00,59.0,33.0,-100.00,ESE,123,1.0,9.0,38,0.00,,,0.00,1.000000,,2013-07-30 07:22:00,
2013-07-30 07:33:00,59.0,33.0,-100.00,ESE,123,1.0,9.0,38,0.00,,,0.00,1.000000,,2013-07-30 07:33:00,
2013-07-30 07:43:00,59.0,33.0,-100.00,ESE,123,1.0,9.0,38,0.00,,,0.00,1.000000,,2013-07-30 07:43:00,
2013-07-30 07:53:00,59.0,33.0,-100.00,ESE,123,1.0,9.0,38,0.00,,,0.00,1.000000,,2013-07-30 07:53:00,
2013-07-30 08:22:00,58.0,32.0,-100.00,ESE,121,2.0,3.0,37,0.00,,,0.00,1.000000,,2013-07-30 08:22:00,
2013-07-30 08:33:00,58.0,32.0,-100.00,ESE,121,2.0,3.0,37,0.00,,,0.00,1.000000,,2013-07-30 08:33:00,
2013-07-30 08:42:00,58.0,32.0,-100.00,ESE,121,2.0,3.0,37,0.00,,,0.00,1.000000,,2013-07-30 08:42:00,
2013-07-30 08:52:00,58.0,32.0,-100.00,ESE,121,2.0,3.0,37,0.00,,,0.00,1.000000,,2013-07-30 08:52:00,
2013-07-30 09:32:00,55.0,35.0,-100.00,East,91,3.0,5.0,47,0.00,,,0.00,1.000000,,2013-07-30 09:32:00,
2013-07-30 09:43:00,55.0,35.0,-100.00,East,91,3.0,5.0,47,0.00,,,0.00,1.000000,,2013-07-30 09:43:00,
2013-07-30 09:53:00,55.0,35.0,-100.00,East,91,3.0,5.0,47,0.00,,,0.00,1.000000,,2013-07-30 09:53:00,
2013-07-30 10:43:00,51.0,36.0,-100.00,East,80,3.0,4.0,56,0.00,,,0.00,1.000000,,2013-07-30 10:43:00,
2013-07-30 10:52:00,51.0,36.0,-100.00,East,80,3.0,4.0,56,0.00,,,0.00,1.000000,,2013-07-30 10:52:00,
2013-07-30 11:22:00,51.0,34.0,-100.00,East,79,4.0,6.0,53,0.00,,,0.00,1.000000,,2013-07-30 11:22:00,
2013-07-30 11:33:00,51.0,34.0,-100.00,East,79,4.0,6.0,53,0.00,,,0.00,1.000000,,2013-07-30 11:33:00,
2013-07-30 11:43:00,51.0,34.0,-100.00,East,79,4.0,6.0,53,0.00,,,0.00,1.000000,,2013-07-30 11:43:00,
2013-07-30 11:53:00,51.0,34.0,-100.00,East,79,4.0,6.0,53,0.00,,,0.00,1.000000,,2013-07-30 11:53:00,
2013-07-30 12:22:00,49.0,34.0,-100.00,East,79,4.0,5.0,57,0.00,,,-99.99,1.000000,,2013-07-30 12:22:00,
2013-07-30 12:33:00,49.0,34.0,-100.00,East,79,4.0,5.0,57,0.00,,,-99.99,1.000000,,2013-07-30 12:33:00,
2013-07-30 12:42:00,49.0,34.0,-100.00,East,79,4.0,5.0,57,0.00,,,-99.99,1.000000,,2013-07-30 12:42:00,
2013-07-30 12:53:00,49.0,34.0,-100.00,East,79,4.0,5.0,57,0.00,,,-99.99,1.000000,,2013-07-30 12:53:00,
2013-07-30 13:22:00,47.0,34.0,-100.00,ENE,69,6.0,8.0,60,0.00,,,0.00,1.000000,,2013-07-30 13:22:00,
2013-07-30 13:32:00,47.0,34.0,-100.00,ENE,69,6.0,8.0,60,0.00,,,0.00,1.000000,,2013-07-30 13:32:00,
2013-07-30 13:42:00,47.0,34.0,-100.00,ENE,69,6.0,8.0,60,0.00,,,0.00,1.000000,,2013-07-30 13:42:00,
2013-07-30 13:52:00,47.0,34.0,-100.00,ENE,69,6.0,8.0,60,0.00,,,0.00,1.000000,,2013-07-30 13:52:00,
2013-07-30 14:22:00,48.0,33.0,-100.00,ENE,72,7.0,9.0,55,0.00,,,0.00,37.000000,,2013-07-30 14:22:00,
2013-07-30 14:32:00,48.0,33.0,-100.00,ENE,72,7.0,9.0,55,0.00,,,0.00,37.000000,,2013-07-30 14:32:00,
2013-07-30 14:43:00,48.0,33.0,-100.00,ENE,72,7.0,9.0,55,0.00,,,0.00,37.000000,,2013-07-30 14:43:00,
2013-07-30 14:53:00,48.0,33.0,-100.00,ENE,72,7.0,9.0,55,0.00,,,0.00,37.000000,,2013-07-30 14:53:00,
2013-07-30 15:22:00,50.0,34.0,-100.00,ENE,66,7.0,10.0,55,0.00,,,0.00,152.000000,,2013-07-30 15:22:00,
2013-07-30 15:33:00,50.0,34.0,-100.00,ENE,66,7.0,10.0,55,0.00,,,0.00,152.000000,,2013-07-30 15:33:00,
2013-07-30 15:43:00,50.0,34.0,-100.00,ENE,66,7.0,10.0,55,0.00,,,0.00,152.000000,,2013-07-30 15:43:00,
2013-07-30 16:43:00,58.0,39.0,-100.00,ENE,69,5.0,10.0,49,0.00,,,0.00,277.000000,,2013-07-30 16:43:00,
2013-07-30 16:52:00,58.0,39.0,-100.00,ENE,69,5.0,10.0,49,0.00,,,0.00,277.000000,,2013-07-30 16:52:00,
2013-07-30 17:22:00,66.0,41.0,-100.00,ENE,77,2.0,7.0,40,0.00,,,0.00,466.000000,,2013-07-30 17:22:00,
2013-07-30 17:32:00,66.0,41.0,-100.00,ENE,77,2.0,7.0,40,0.00,,,0.00,466.000000,,2013-07-30 17:32:00,
2013-07-30 17:43:00,66.0,41.0,-100.00,ENE,77,2.0,7.0,40,0.00,,,0.00,466.000000,,2013-07-30 17:43:00,
2013-07-30 17:53:00,66.0,41.0,-100.00,ENE,77,2.0,7.0,40,0.00,,,0.00,466.000000,,2013-07-30 17:53:00,
2013-07-30 18:23:00,71.0,42.0,-100.00,WSW,244,5.0,7.0,35,0.00,,,0.00,649.000000,,2013-07-30 18:23:00,
2013-07-30 18:32:00,71.0,42.0,-100.00,WSW,244,5.0,7.0,35,0.00,,,0.00,649.000000,,2013-07-30 18:32:00,
2013-07-30 18:42:00,71.0,42.0,-100.00,WSW,244,5.0,7.0,35,0.00,,,0.00,649.000000,,2013-07-30 18:42:00,
2013-07-30 18:52:00,71.0,42.0,-100.00,WSW,244,5.0,7.0,35,0.00,,,0.00,649.000000,,2013-07-30 18:52:00,
2013-07-30 19:22:00,76.0,41.0,-100.00,SW,222,4.0,9.0,28,0.00,,,0.00,829.000000,,2013-07-30 19:22:00,
2013-07-30 19:33:00,76.0,41.0,-100.00,SW,222,4.0,9.0,28,0.00,,,0.00,829.000000,,2013-07-30 19:33:00,
2013-07-30 19:43:00,76.0,41.0,-100.00,SW,222,4.0,9.0,28,0.00,,,0.00,829.000000,,2013-07-30 19:43:00,
2013-07-30 19:52:00,76.0,41.0,-100.00,SW,222,4.0,9.0,28,0.00,,,0.00,829.000000,,2013-07-30 19:52:00,
2013-07-30 20:22:00,79.0,41.0,-100.00,SW,214,8.0,15.0,26,0.00,,,0.00,915.000000,,2013-07-30 20:22:00,
2013-07-30 20:32:00,79.0,41.0,-100.00,SW,214,8.0,15.0,26,0.00,,,0.00,915.000000,,2013-07-30 20:32:00,
2013-07-30 20:43:00,79.0,41.0,-100.00,SW,214,8.0,15.0,26,0.00,,,0.00,915.000000,,2013-07-30 20:43:00,
2013-07-30 20:52:00,79.0,41.0,-100.00,SW,214,8.0,15.0,26,0.00,,,0.00,915.000000,,2013-07-30 20:52:00,
2013-07-30 21:32:00,81.0,40.0,-100.00,SW,233,9.0,16.0,23,0.00,,,0.00,932.000000,,2013-07-30 21:32:00,
2013-07-30 21:42:00,81.0,40.0,-100.00,SW,233,9.0,16.0,23,0.00,,,0.00,932.000000,,2013-07-30 21:42:00,
2013-07-30 21:52:00,81.0,40.0,-100.00,SW,233,9.0,16.0,23,0.00,,,0.00,932.000000,,2013-07-30 21:52:00,
2013-07-30 22:32:00,83.0,38.0,-100.00,SSE,168,6.0,13.0,20,0.00,,,0.00,897.000000,,2013-07-30 22:32:00,
2013-07-30 22:43:00,83.0,38.0,-100.00,SSE,168,6.0,13.0,20,0.00,,,0.00,897.000000,,2013-07-30 22:43:00,
2013-07-30 22:52:00,83.0,38.0,-100.00,SSE,168,6.0,13.0,20,0.00,,,0.00,897.000000,,2013-07-30 22:52:00,
2013-07-30 23:22:00,82.0,33.0,-100.00,WSW,253,6.0,14.0,17,0.00,,,0.00,723.000000,,2013-07-30 23:22:00,
2013-07-30 23:32:00,82.0,33.0,-100.00,WSW,253,6.0,14.0,17,0.00,,,0.00,723.000000,,2013-07-30 23:32:00,